Defas Park, Utah
Current Conditions -  °F | °C
As of 6:15 AM on Thursday 25 Dec 2014 (Local Time) from K36U Reporting Station
Light Snow Light Snow  
Wind Chill: 21°   Ceiling: 600
Heat Index: 28°   Visibility: 1.7mi
Dew Point: 27°   Wind: 7mph
Humidity: 93%   Direction: 100°E
Pressure: 29.47"   Gusts: NA
Location:  40.4484°N, 110.825°W
Report Text: K36U 251315Z AUTO 10006KT 1 3/4SM -SN OVC006 M02/M03 A2947 RMK AO2
Loading
Personal Weather Stations






























Interactive Weather Map New forecast layout! Learn more

10-Day Weather Forecast

Advertisements
Track Severe Weather on mobile